createdAt,value
2018-11-29T00:00:26.689Z,8.50
2018-11-29T00:02:55.127Z,9.07
2018-11-29T00:05:23.558Z,9.00
2018-11-29T00:07:52.749Z,8.70
2018-11-29T00:10:21.202Z,9.07
2018-11-29T00:12:49.638Z,9.00
2018-11-29T00:15:18.102Z,7.87
2018-11-29T00:17:46.508Z,7.60
2018-11-29T00:20:15.686Z,8.83
2018-11-29T00:22:45.602Z,8.73
2018-11-29T00:25:14.941Z,8.30
2018-11-29T00:27:43.491Z,8.57
2018-11-29T00:30:15.759Z,8.17
2018-11-29T00:32:44.182Z,8.90
2018-11-29T00:35:13.341Z,8.70
2018-11-29T00:37:41.851Z,8.20
2018-11-29T00:40:16.096Z,8.00
2018-11-29T00:42:44.522Z,8.80
2018-11-29T00:45:13.783Z,7.50
2018-11-29T00:47:42.326Z,7.50
2018-11-29T00:50:12.410Z,8.40
2018-11-29T00:52:41.774Z,8.37
2018-11-29T00:55:12.058Z,7.93
2018-11-29T00:57:40.639Z,8.43
2018-11-29T01:00:14.080Z,8.80
2018-11-29T01:02:42.555Z,7.83
2018-11-29T01:05:11.029Z,8.57
2018-11-29T01:07:39.682Z,8.37
2018-11-29T01:10:15.886Z,8.87
2018-11-29T01:12:44.747Z,8.60
2018-11-29T01:15:17.019Z,8.10
2018-11-29T01:17:46.280Z,8.97
2018-11-29T01:20:18.261Z,8.90
2018-11-29T01:22:46.791Z,9.13
2018-11-29T01:25:15.694Z,9.33
2018-11-29T01:27:45.179Z,9.20
2018-11-29T01:30:15.384Z,9.20
2018-11-29T01:32:43.942Z,9.83
2018-11-29T01:35:13.214Z,10.10
2018-11-29T01:37:41.615Z,9.50
2018-11-29T01:40:17.527Z,10.07
2018-11-29T01:42:47.160Z,9.30
2018-11-29T01:45:15.563Z,10.30
2018-11-29T01:47:44.026Z,9.47
2018-11-29T01:50:12.524Z,10.03
2018-11-29T01:52:40.949Z,10.40
2018-11-29T01:55:09.818Z,10.57
2018-11-29T01:57:38.265Z,10.33
2018-11-29T02:00:10.113Z,9.93
2018-11-29T02:02:38.548Z,10.87
2018-11-29T02:05:08.255Z,11.10
2018-11-29T02:07:36.886Z,10.33
2018-11-29T02:10:12.244Z,11.37
2018-11-29T02:12:40.663Z,11.40
2018-11-29T02:15:09.271Z,11.67
2018-11-29T02:17:37.677Z,12.10
2018-11-29T02:20:08.236Z,10.93
2018-11-29T02:22:36.640Z,12.03
2018-11-29T02:25:05.822Z,11.50
2018-11-29T02:27:34.724Z,11.90
2018-11-29T02:30:03.232Z,11.37
2018-11-29T02:32:31.637Z,12.23
2018-11-29T02:35:00.098Z,12.00
2018-11-29T02:37:28.515Z,10.77
2018-11-29T02:39:56.930Z,11.77
2018-11-29T02:42:25.314Z,12.90
2018-11-29T02:44:53.706Z,11.97
2018-11-29T02:47:22.108Z,11.43
2018-11-29T02:49:50.514Z,12.30
2018-11-29T02:52:18.948Z,13.23
2018-11-29T02:54:47.393Z,12.80
2018-11-29T02:57:15.811Z,13.23
2018-11-29T02:59:44.187Z,12.87
2018-11-29T03:02:12.638Z,13.13
2018-11-29T03:04:41.040Z,13.27
2018-11-29T03:07:10.244Z,12.37
2018-11-29T03:09:38.614Z,11.93
2018-11-29T03:12:07.047Z,12.87
2018-11-29T03:14:35.438Z,14.03
2018-11-29T03:17:03.871Z,13.93
2018-11-29T03:19:32.271Z,12.43
2018-11-29T03:22:00.674Z,13.17
2018-11-29T03:24:29.078Z,12.83
2018-11-29T03:26:57.458Z,12.67
2018-11-29T03:29:25.915Z,12.97
2018-11-29T03:31:54.317Z,13.03
2018-11-29T03:34:22.764Z,12.37
2018-11-29T03:36:51.153Z,13.27
2018-11-29T03:39:19.535Z,12.30
2018-11-29T03:41:47.951Z,12.30
2018-11-29T03:44:16.359Z,12.53
2018-11-29T03:46:44.736Z,13.70
2018-11-29T03:49:13.166Z,12.50
2018-11-29T03:51:41.584Z,13.27
2018-11-29T03:54:09.978Z,13.27
2018-11-29T03:56:38.563Z,13.37
2018-11-29T03:59:07.051Z,13.60
2018-11-29T04:01:35.450Z,13.97
2018-11-29T04:04:03.832Z,13.17
2018-11-29T04:06:32.226Z,13.00
2018-11-29T04:09:00.696Z,13.60
2018-11-29T04:11:29.123Z,13.43
2018-11-29T04:13:57.579Z,13.50
2018-11-29T04:16:25.980Z,14.57
2018-11-29T04:18:54.391Z,14.33
2018-11-29T04:21:22.851Z,13.70
2018-11-29T04:23:51.266Z,14.57
2018-11-29T04:26:19.718Z,14.97
2018-11-29T04:28:48.158Z,13.73
2018-11-29T04:31:16.574Z,14.50
2018-11-29T04:33:44.951Z,14.43
2018-11-29T04:36:13.390Z,15.70
2018-11-29T04:38:41.778Z,15.87
2018-11-29T04:41:10.174Z,15.43
2018-11-29T04:43:38.541Z,15.17
2018-11-29T04:46:43.876Z,15.47
2018-11-29T04:49:12.285Z,15.43
2018-11-29T04:51:40.714Z,15.33
2018-11-29T04:54:09.585Z,15.23
2018-11-29T04:56:38.043Z,16.40
2018-11-29T04:59:06.701Z,15.57
2018-11-29T05:01:35.290Z,16.03
2018-11-29T05:04:03.761Z,15.80
2018-11-29T05:06:32.173Z,16.70
2018-11-29T05:09:00.632Z,17.13
2018-11-29T05:11:29.027Z,16.60
2018-11-29T05:13:57.469Z,15.90
2018-11-29T05:16:25.861Z,17.20
2018-11-29T05:18:54.291Z,17.47
2018-11-29T05:21:22.672Z,17.63
2018-11-29T05:23:51.082Z,17.87
2018-11-29T05:26:19.497Z,16.93
2018-11-29T05:28:47.891Z,16.70
2018-11-29T05:31:16.296Z,17.57
2018-11-29T05:33:44.654Z,18.57
2018-11-29T05:36:13.062Z,16.97
2018-11-29T05:38:41.466Z,17.50
2018-11-29T05:41:09.880Z,19.10
2018-11-29T05:43:38.259Z,18.17
2018-11-29T05:46:06.692Z,25.40
2018-11-29T05:48:35.084Z,21.67
2018-11-29T05:51:03.573Z,22.10
2018-11-29T05:53:31.978Z,19.77
2018-11-29T05:56:00.362Z,19.97
2018-11-29T05:58:28.833Z,18.87
2018-11-29T06:00:59.574Z,22.40
2018-11-29T06:03:27.998Z,20.80
2018-11-29T06:05:56.411Z,19.57
2018-11-29T06:08:24.881Z,37.23
2018-11-29T06:10:53.308Z,22.17
2018-11-29T06:13:21.712Z,26.13
2018-11-29T06:15:50.114Z,18.27
2018-11-29T06:18:18.518Z,23.07
2018-11-29T06:20:46.943Z,26.03
2018-11-29T06:23:15.328Z,36.67
2018-11-29T06:25:43.723Z,28.17
2018-11-29T06:28:12.099Z,47.80
2018-11-29T06:30:40.518Z,103.10
2018-11-29T06:33:08.978Z,20.57
2018-11-29T06:35:37.334Z,29.10
2018-11-29T06:38:05.936Z,17.60
2018-11-29T06:40:35.042Z,17.47
2018-11-29T06:43:03.451Z,17.10
2018-11-29T06:45:32.395Z,16.33
2018-11-29T06:48:00.799Z,16.47
2018-11-29T06:50:29.271Z,16.73
2018-11-29T06:52:57.644Z,15.17
2018-11-29T06:55:26.070Z,15.40
2018-11-29T06:57:54.624Z,16.03
2018-11-29T07:00:38.147Z,16.33
2018-11-29T07:03:06.802Z,16.73
2018-11-29T07:05:35.190Z,16.00
2018-11-29T07:08:03.636Z,15.80
2018-11-29T07:10:32.053Z,15.77
2018-11-29T07:13:00.790Z,16.17
2018-11-29T07:15:29.181Z,16.30
2018-11-29T07:17:57.650Z,17.60
2018-11-29T07:20:26.137Z,18.23
2018-11-29T07:22:54.629Z,17.97
2018-11-29T07:25:23.043Z,19.40
2018-11-29T07:27:51.527Z,19.93
2018-11-29T07:30:20.027Z,18.00
2018-11-29T07:32:48.492Z,17.57
2018-11-29T07:35:17.298Z,20.93
2018-11-29T07:37:45.702Z,19.33
2018-11-29T07:40:17.245Z,19.13
2018-11-29T07:42:46.739Z,19.07
2018-11-29T07:45:17.976Z,17.83
2018-11-29T07:47:46.680Z,18.63
2018-11-29T07:50:18.873Z,18.50
2018-11-29T07:52:47.311Z,19.40
2018-11-29T07:55:17.740Z,19.30
2018-11-29T07:57:46.951Z,20.03
2018-11-29T08:00:16.119Z,19.10
2018-11-29T08:02:44.693Z,18.17
2018-11-29T08:05:13.925Z,18.93
2018-11-29T08:07:47.500Z,18.13
2018-11-29T08:10:13.906Z,16.97
2018-11-29T08:12:42.359Z,17.77
2018-11-29T08:15:12.002Z,17.57
2018-11-29T08:17:40.423Z,18.63
2018-11-29T08:20:14.688Z,17.47
2018-11-29T08:22:43.927Z,17.37
2018-11-29T08:25:12.386Z,18.30
2018-11-29T08:27:41.100Z,17.27
2018-11-29T08:30:10.854Z,16.97
2018-11-29T08:32:39.288Z,17.83
2018-11-29T08:35:10.535Z,17.27
2018-11-29T08:37:39.555Z,16.70
2018-11-29T08:40:16.894Z,17.60
2018-11-29T08:42:45.309Z,16.83
2018-11-29T08:45:13.780Z,17.27
2018-11-29T08:47:42.214Z,17.47
2018-11-29T08:50:11.702Z,16.80
2018-11-29T08:52:41.912Z,17.47
2018-11-29T08:55:12.550Z,17.87
2018-11-29T08:57:41.119Z,16.73
2018-11-29T09:00:11.962Z,17.43
2018-11-29T09:02:40.402Z,17.67
2018-11-29T09:05:09.817Z,18.03
2018-11-29T09:07:38.249Z,17.70
2018-11-29T09:10:08.920Z,18.10
2018-11-29T09:12:37.338Z,18.47
2018-11-29T09:15:07.740Z,17.83
2018-11-29T09:17:36.154Z,19.07
2018-11-29T09:20:06.094Z,18.10
2018-11-29T09:22:34.494Z,18.10
2018-11-29T09:25:03.922Z,19.57
2018-11-29T09:27:32.342Z,18.63
2018-11-29T09:30:00.752Z,18.97
2018-11-29T09:32:29.154Z,18.90
2018-11-29T09:34:57.576Z,18.50
2018-11-29T09:37:25.989Z,18.27
2018-11-29T09:39:54.384Z,18.97
2018-11-29T09:42:23.423Z,18.83
2018-11-29T09:44:51.790Z,20.00
2018-11-29T09:47:20.290Z,19.03
2018-11-29T09:49:48.691Z,19.40
2018-11-29T09:52:17.130Z,18.67
2018-11-29T09:54:46.431Z,18.50
2018-11-29T09:57:14.854Z,19.27
2018-11-29T09:59:43.250Z,19.70
2018-11-29T10:02:11.672Z,19.97
2018-11-29T10:04:40.078Z,19.80
2018-11-29T10:07:08.503Z,19.87
2018-11-29T10:09:36.927Z,20.37
2018-11-29T10:12:05.710Z,19.63
2018-11-29T10:14:34.192Z,20.97
2018-11-29T10:17:02.584Z,19.83
2018-11-29T10:19:31.040Z,18.83
2018-11-29T10:21:59.464Z,21.73
2018-11-29T10:24:27.917Z,29.80
2018-11-29T10:26:56.316Z,34.37
2018-11-29T10:29:24.705Z,42.77
2018-11-29T10:31:53.162Z,32.67
2018-11-29T10:34:21.562Z,29.67
2018-11-29T10:36:49.986Z,21.33
2018-11-29T10:39:18.359Z,22.10
2018-11-29T10:41:46.798Z,22.03
2018-11-29T10:44:15.201Z,21.77
2018-11-29T10:46:43.654Z,24.50
2018-11-29T10:49:12.044Z,22.20
2018-11-29T10:51:40.462Z,22.10
2018-11-29T10:54:08.878Z,22.60
2018-11-29T10:56:37.374Z,22.30
2018-11-29T10:59:06.146Z,22.07
2018-11-29T11:01:39.911Z,21.17
2018-11-29T11:04:08.335Z,20.80
2018-11-29T11:06:36.744Z,21.47
2018-11-29T11:09:07.899Z,22.37
2018-11-29T11:11:36.358Z,20.10
2018-11-29T11:14:05.406Z,20.80
2018-11-29T11:16:33.822Z,20.90
2018-11-29T11:19:02.215Z,20.93
2018-11-29T11:21:30.620Z,22.27
2018-11-29T11:23:59.473Z,26.00
2018-11-29T11:26:27.504Z,22.07
2018-11-29T11:28:55.901Z,22.33
2018-11-29T11:31:30.846Z,21.60
2018-11-29T11:33:52.747Z,22.93
2018-11-29T11:36:21.135Z,22.47
2018-11-29T11:38:49.566Z,21.37
2018-11-29T11:41:17.938Z,21.73
2018-11-29T11:43:46.372Z,21.60
2018-11-29T11:46:14.753Z,20.93
2018-11-29T11:48:43.286Z,23.17
2018-11-29T11:51:11.695Z,22.83
2018-11-29T11:53:40.099Z,22.97
2018-11-29T11:56:08.511Z,23.10
2018-11-29T11:58:36.935Z,22.63
2018-11-29T12:01:05.681Z,23.07
2018-11-29T12:03:34.112Z,22.00
2018-11-29T12:06:02.562Z,22.50
2018-11-29T12:08:31.031Z,22.30
2018-11-29T12:10:59.458Z,21.70
2018-11-29T12:13:27.850Z,22.13
2018-11-29T12:15:56.255Z,23.47
2018-11-29T12:18:24.651Z,23.67
2018-11-29T12:20:53.063Z,21.97
2018-11-29T12:23:21.468Z,22.93
2018-11-29T12:25:49.890Z,21.07
2018-11-29T12:28:18.259Z,22.33
2018-11-29T12:30:48.655Z,23.37
2018-11-29T12:33:17.119Z,22.63
2018-11-29T12:35:45.576Z,22.20
2018-11-29T12:38:14.028Z,22.07
2018-11-29T12:40:42.475Z,23.17
2018-11-29T12:43:10.876Z,21.60
2018-11-29T12:45:39.362Z,21.67
2018-11-29T12:48:07.775Z,21.13
2018-11-29T12:50:38.580Z,21.40
2018-11-29T12:53:07.531Z,21.70
2018-11-29T12:55:39.264Z,20.80
2018-11-29T12:58:07.691Z,20.13
2018-11-29T13:00:36.180Z,20.20
2018-11-29T13:05:37.014Z,20.13
2018-11-29T13:08:06.343Z,21.47
2018-11-29T13:10:34.918Z,20.63
2018-11-29T13:13:03.531Z,21.50
2018-11-29T13:15:33.090Z,20.10
2018-11-29T13:18:03.035Z,20.10
2018-11-29T13:20:32.612Z,20.37
2018-11-29T13:22:59.879Z,20.67
2018-11-29T13:25:28.680Z,20.60
2018-11-29T13:27:57.173Z,19.77
2018-11-29T13:30:25.626Z,19.73
2018-11-29T13:32:56.011Z,20.77
2018-11-29T13:35:31.653Z,20.20
2018-11-29T13:38:02.628Z,20.07
2018-11-29T13:40:31.046Z,19.03
2018-11-29T13:42:59.438Z,19.93
2018-11-29T13:45:27.901Z,19.67
2018-11-29T13:47:56.324Z,19.63
2018-11-29T13:50:24.776Z,19.00
2018-11-29T13:52:53.271Z,19.07
2018-11-29T13:55:21.735Z,19.07
2018-11-29T13:57:50.812Z,19.10
2018-11-29T14:00:21.272Z,19.50
2018-11-29T14:02:50.967Z,19.17
2018-11-29T14:05:19.390Z,18.20
2018-11-29T14:07:47.847Z,16.63
2018-11-29T14:10:18.086Z,16.57
2018-11-29T14:12:47.396Z,17.17
2018-11-29T14:15:16.870Z,17.37
2018-11-29T14:17:45.299Z,18.07
2018-11-29T14:20:14.104Z,17.30
2018-11-29T14:22:42.639Z,16.53
2018-11-29T14:25:14.913Z,16.80
2018-11-29T14:27:46.263Z,16.67
2018-11-29T14:30:15.829Z,16.00
2018-11-29T14:32:44.271Z,16.10
2018-11-29T14:35:12.742Z,17.03
2018-11-29T14:37:41.275Z,16.97
2018-11-29T14:40:25.543Z,15.17
2018-11-29T14:42:54.002Z,16.13
2018-11-29T14:45:25.261Z,16.07
2018-11-29T14:47:54.026Z,15.83
2018-11-29T14:51:02.188Z,14.87
2018-11-29T14:53:25.176Z,14.97
2018-11-29T14:55:53.625Z,16.10
2018-11-29T14:58:22.843Z,17.53
2018-11-29T15:00:51.339Z,16.43
2018-11-29T15:03:21.423Z,16.93
2018-11-29T15:05:49.897Z,15.87
2018-11-29T15:08:18.338Z,15.70
2018-11-29T15:10:46.763Z,14.77
2018-11-29T15:13:15.220Z,15.27
2018-11-29T15:15:43.953Z,15.60
2018-11-29T15:18:12.459Z,15.53
2018-11-29T15:20:44.076Z,13.77
2018-11-29T15:23:13.462Z,13.97
2018-11-29T15:25:41.903Z,14.43
2018-11-29T15:28:10.319Z,15.00
2018-11-29T15:30:38.740Z,14.10
2018-11-29T15:33:07.257Z,14.23
2018-11-29T15:35:35.687Z,14.20
2018-11-29T15:38:04.315Z,14.00
2018-11-29T15:40:32.922Z,14.20
2018-11-29T15:43:01.378Z,11.93
2018-11-29T15:45:29.852Z,13.73
2018-11-29T15:47:58.311Z,12.70
2018-11-29T15:50:26.841Z,12.00
2018-11-29T15:52:55.338Z,11.80
2018-11-29T15:55:24.028Z,12.33
2018-11-29T15:57:53.216Z,12.53
2018-11-29T16:00:24.891Z,11.40
2018-11-29T16:02:54.058Z,11.80
2018-11-29T16:05:22.571Z,12.03
2018-11-29T16:07:51.016Z,11.90
2018-11-29T16:10:20.807Z,11.27
2018-11-29T16:12:49.309Z,11.80
2018-11-29T16:15:18.709Z,11.20
2018-11-29T16:17:47.667Z,11.43
2018-11-29T16:20:24.957Z,11.17
2018-11-29T16:22:53.388Z,10.67
2018-11-29T16:25:21.850Z,11.90
2018-11-29T16:27:50.392Z,11.23
2018-11-29T16:30:53.219Z,10.20
2018-11-29T16:33:23.199Z,10.83
2018-11-29T16:35:52.587Z,10.43
2018-11-29T16:38:21.016Z,11.43
2018-11-29T16:40:50.877Z,10.73
2018-11-29T16:43:19.352Z,10.17
2018-11-29T16:45:47.810Z,10.80
2018-11-29T16:48:16.311Z,11.03
2018-11-29T16:50:44.782Z,10.43
2018-11-29T16:53:13.233Z,10.80
2018-11-29T16:55:41.669Z,10.27
2018-11-29T16:58:14.639Z,10.57
2018-11-29T17:00:43.262Z,9.90
2018-11-29T17:03:11.749Z,10.37
2018-11-29T17:05:40.250Z,10.77
2018-11-29T17:08:08.737Z,10.90
2018-11-29T17:10:37.175Z,10.43
2018-11-29T17:13:08.570Z,10.53
2018-11-29T17:15:36.997Z,9.60
2018-11-29T17:18:05.567Z,10.50
2018-11-29T17:20:34.133Z,10.50
2018-11-29T17:23:02.610Z,10.47
2018-11-29T17:25:31.030Z,10.57
2018-11-29T17:27:59.488Z,10.67
2018-11-29T17:30:27.935Z,9.73
2018-11-29T17:32:57.271Z,9.40
2018-11-29T17:35:25.712Z,10.47
2018-11-29T17:37:55.428Z,9.97
2018-11-29T17:40:23.877Z,10.80
2018-11-29T17:42:53.114Z,10.10
2018-11-29T17:45:23.554Z,10.83
2018-11-29T17:47:56.995Z,10.87
2018-11-29T17:50:34.134Z,10.53
2018-11-29T17:53:02.574Z,11.43
2018-11-29T17:55:31.103Z,13.13
2018-11-29T17:57:59.556Z,11.70
2018-11-29T18:00:30.381Z,11.10
2018-11-29T18:02:58.820Z,11.57
2018-11-29T18:05:27.356Z,12.53
2018-11-29T18:07:55.765Z,11.60
2018-11-29T18:10:26.225Z,11.40
2018-11-29T18:13:01.315Z,12.00
2018-11-29T18:15:31.177Z,12.20
2018-11-29T18:17:59.974Z,12.53
2018-11-29T18:20:28.788Z,11.87
2018-11-29T18:22:56.962Z,12.57
2018-11-29T18:25:25.378Z,12.57
2018-11-29T18:27:53.880Z,12.13
2018-11-29T18:30:22.778Z,12.40
2018-11-29T18:32:51.592Z,11.47
2018-11-29T18:35:20.119Z,11.80
2018-11-29T18:37:48.607Z,12.27
2018-11-29T18:40:20.791Z,12.43
2018-11-29T18:42:51.641Z,11.63
2018-11-29T18:45:20.376Z,12.70
2018-11-29T18:47:50.820Z,11.57
2018-11-29T18:50:20.226Z,12.70
2018-11-29T18:52:49.221Z,12.53
2018-11-29T18:55:18.404Z,11.93
2018-11-29T18:57:46.860Z,12.10
2018-11-29T19:00:19.427Z,11.93
2018-11-29T19:02:48.052Z,11.50
2018-11-29T19:05:16.616Z,11.70
2018-11-29T19:07:45.222Z,11.37
2018-11-29T19:10:14.587Z,11.70
2018-11-29T19:12:49.450Z,11.87
2018-11-29T19:15:18.014Z,11.33
2018-11-29T19:17:46.417Z,11.03
2018-11-29T19:20:14.932Z,11.60
2018-11-29T19:22:43.449Z,11.90
2018-11-29T19:25:13.998Z,12.33
2018-11-29T19:27:41.734Z,10.60
2018-11-29T19:30:14.548Z,10.90
2018-11-29T19:32:43.074Z,11.23
2018-11-29T19:35:11.967Z,11.00
2018-11-29T19:37:40.407Z,11.30
2018-11-29T19:40:13.761Z,10.10
2018-11-29T19:42:42.180Z,10.40
2018-11-29T19:45:14.888Z,10.77
2018-11-29T19:47:43.358Z,10.63
2018-11-29T19:50:15.041Z,10.27
2018-11-29T19:52:44.706Z,10.17
2018-11-29T19:55:15.915Z,11.50
2018-11-29T19:57:44.370Z,10.90
2018-11-29T20:00:13.454Z,9.93
2018-11-29T20:02:42.779Z,10.00
2018-11-29T20:05:12.019Z,10.50
2018-11-29T20:07:40.554Z,10.03
2018-11-29T20:10:11.276Z,10.67
2018-11-29T20:12:39.803Z,10.53
2018-11-29T20:15:17.198Z,10.50
2018-11-29T20:17:47.668Z,9.83
2018-11-29T20:20:16.153Z,10.50
2018-11-29T20:22:44.631Z,10.10
2018-11-29T20:25:17.981Z,9.80
2018-11-29T20:27:46.522Z,10.60
2018-11-29T20:30:16.068Z,9.80
2018-11-29T20:32:44.741Z,11.03
2018-11-29T20:35:13.527Z,10.27
2018-11-29T20:37:42.083Z,11.07
2018-11-29T20:40:13.534Z,10.40
2018-11-29T20:42:42.127Z,10.33
2018-11-29T20:45:13.158Z,10.57
2018-11-29T20:47:41.678Z,9.83
2018-11-29T20:50:14.705Z,9.90
2018-11-29T20:52:40.506Z,9.30
2018-11-29T20:55:11.121Z,9.97
2018-11-29T20:57:39.629Z,9.90
2018-11-29T21:00:11.266Z,10.43
2018-11-29T21:02:40.513Z,10.57
2018-11-29T21:05:10.397Z,9.90
2018-11-29T21:07:38.940Z,10.00
2018-11-29T21:10:11.654Z,8.77
2018-11-29T21:12:40.087Z,9.40
2018-11-29T21:15:08.630Z,8.73
2018-11-29T21:17:37.100Z,8.47
2018-11-29T21:20:08.556Z,8.10
2018-11-29T21:22:37.028Z,8.73
2018-11-29T21:25:07.656Z,8.93
2018-11-29T21:27:36.104Z,8.53
2018-11-29T21:30:06.678Z,8.47
2018-11-29T21:32:35.115Z,8.90
2018-11-29T21:35:03.612Z,8.83
2018-11-29T21:37:32.077Z,9.20
2018-11-29T21:40:00.521Z,8.97
2018-11-29T21:42:29.008Z,8.80
2018-11-29T21:44:57.485Z,8.47
2018-11-29T21:47:25.970Z,8.40
2018-11-29T21:49:54.466Z,8.63
2018-11-29T21:52:23.099Z,8.93
2018-11-29T21:54:51.525Z,8.47
2018-11-29T21:57:20.137Z,9.07
2018-11-29T21:59:48.555Z,8.60
2018-11-29T22:02:17.021Z,7.73
2018-11-29T22:04:45.493Z,7.80
2018-11-29T22:07:13.962Z,8.20
2018-11-29T22:09:42.396Z,8.47
2018-11-29T22:12:10.802Z,8.37
2018-11-29T22:14:41.435Z,7.80
2018-11-29T22:17:09.863Z,7.80
2018-11-29T22:19:39.007Z,8.27
2018-11-29T22:22:07.493Z,7.87
2018-11-29T22:24:36.030Z,7.60
2018-11-29T22:27:04.478Z,7.60
2018-11-29T22:29:32.913Z,8.00
2018-11-29T22:32:02.114Z,7.30
2018-11-29T22:34:30.594Z,7.97
2018-11-29T22:36:58.970Z,7.97
2018-11-29T22:39:27.383Z,7.60
2018-11-29T22:41:55.822Z,7.50
2018-11-29T22:44:24.293Z,7.87
2018-11-29T22:46:52.693Z,7.23
2018-11-29T22:49:21.106Z,7.60
2018-11-29T22:51:49.527Z,7.40
2018-11-29T22:54:17.954Z,7.60
2018-11-29T22:56:46.359Z,7.30
2018-11-29T22:59:14.873Z,7.53
2018-11-29T23:01:43.329Z,7.60
2018-11-29T23:04:11.783Z,8.10
2018-11-29T23:06:40.273Z,7.77
2018-11-29T23:09:09.322Z,7.87
2018-11-29T23:11:38.046Z,7.47
2018-11-29T23:14:06.611Z,7.53
2018-11-29T23:16:35.123Z,7.83
2018-11-29T23:19:03.546Z,7.03
2018-11-29T23:21:31.966Z,7.47
2018-11-29T23:24:00.383Z,7.17
2018-11-29T23:26:28.850Z,6.80
2018-11-29T23:28:57.255Z,7.53
2018-11-29T23:31:25.699Z,7.63
2018-11-29T23:33:54.114Z,7.00
2018-11-29T23:36:22.543Z,7.50
2018-11-29T23:38:50.969Z,6.80
2018-11-29T23:41:19.458Z,7.23
2018-11-29T23:43:47.922Z,6.50
2018-11-29T23:46:16.354Z,7.00
2018-11-29T23:48:44.796Z,7.97
2018-11-29T23:51:13.782Z,7.47
2018-11-29T23:53:43.744Z,7.80
2018-11-29T23:56:13.055Z,6.83
2018-11-29T23:58:41.754Z,7.67
